Time;durP1;ratioP1;P1;durP2;ratioP2;P2;SDS_P1;SDS_P2;PMS_P1;PMS_P2;Temp;Humidity;BMP_temperature;BMP_pressure;BME280_temperature;BME280_humidity;BME280_pressure;Samples;Min_cycle;Max_cycle;Signal;HPM_P1;HPM_P2
2022/12/24 00:01:52;;;;;;;0.50;0.50;;;;;;;;;;4986165;28;20512;-66
2022/12/24 00:04:17;;;;;;;0.50;0.50;;;;;;;;;;4971327;28;20507;-66
2022/12/24 00:06:43;;;;;;;0.50;0.45;;;;;;;;;;4970898;28;20145;-66
2022/12/24 00:09:09;;;;;;;2.65;0.60;;;;;;;;;;4970029;28;20053;-66
2022/12/24 00:11:34;;;;;;;1.35;0.63;;;;;;;;;;4971240;28;20054;-66
2022/12/24 00:14:00;;;;;;;0.80;0.68;;;;;;;;;;4971264;28;20047;-67
2022/12/24 00:16:25;;;;;;;1.33;0.65;;;;;;;;;;4983181;28;20055;-66
2022/12/24 00:18:51;;;;;;;0.52;0.45;;;;;;;;;;4965985;28;20055;-65
2022/12/24 00:21:16;;;;;;;0.52;0.45;;;;;;;;;;4985235;28;20042;-67
2022/12/24 00:23:42;;;;;;;1.23;0.30;;;;;;;;;;4971283;28;20073;-66
2022/12/24 00:26:07;;;;;;;0.57;0.45;;;;;;;;;;4970663;28;20550;-66
2022/12/24 00:28:33;;;;;;;0.40;0.40;;;;;;;;;;4969586;28;20046;-64
2022/12/24 00:30:58;;;;;;;1.27;0.47;;;;;;;;;;4970056;28;20610;-66
2022/12/24 00:33:24;;;;;;;0.30;0.30;;;;;;;;;;4968986;28;20050;-67
2022/12/24 00:35:50;;;;;;;2.53;0.55;;;;;;;;;;4985878;28;20135;-67
2022/12/24 00:38:16;;;;;;;1.45;0.52;;;;;;;;;;4969467;28;20047;-65
2022/12/24 00:40:41;;;;;;;1.15;0.65;;;;;;;;;;4970593;28;20407;-63
2022/12/24 00:43:06;;;;;;;0.52;0.52;;;;;;;;;;4952253;28;20091;-65
2022/12/24 00:45:32;;;;;;;1.00;0.47;;;;;;;;;;4951356;28;20047;-65
2022/12/24 00:47:57;;;;;;;1.17;0.70;;;;;;;;;;4950905;28;20039;-65
2022/12/24 00:50:23;;;;;;;2.40;0.70;;;;;;;;;;4944102;28;20492;-65
2022/12/24 00:52:48;;;;;;;1.25;0.60;;;;;;;;;;4966172;28;20055;-65
2022/12/24 00:55:14;;;;;;;1.40;0.52;;;;;;;;;;4950559;28;20055;-65
2022/12/24 00:57:39;;;;;;;0.52;0.40;;;;;;;;;;4951228;28;20099;-65
2022/12/24 01:00:05;;;;;;;2.50;0.70;;;;;;;;;;4950526;28;20090;-64
2022/12/24 01:02:30;;;;;;;0.47;0.45;;;;;;;;;;4950718;28;20047;-64
2022/12/24 01:05:11;;;;;;;0.50;0.30;;;;;;;;;;4958408;28;20058;-65
2022/12/24 01:07:40;;;;;;;0.60;0.60;;;;;;;;;;4949766;28;20508;-65
2022/12/24 01:10:06;;;;;;;0.93;0.60;;;;;;;;;;4948734;28;20050;-65
2022/12/24 01:12:32;;;;;;;0.50;0.50;;;;;;;;;;4949135;28;20798;-66
2022/12/24 01:14:58;;;;;;;1.38;0.50;;;;;;;;;;4949849;28;20050;-68
2022/12/24 01:17:23;;;;;;;5.97;0.60;;;;;;;;;;4951137;28;20057;-68
2022/12/24 01:19:49;;;;;;;0.60;0.60;;;;;;;;;;4950677;28;20047;-68
2022/12/24 01:22:14;;;;;;;0.32;0.30;;;;;;;;;;4951081;28;20055;-66
2022/12/24 01:24:41;;;;;;;0.95;0.52;;;;;;;;;;4951175;28;20047;-66
2022/12/24 01:27:06;;;;;;;2.75;0.65;;;;;;;;;;4949619;28;20126;-66
2022/12/24 01:29:32;;;;;;;2.08;0.65;;;;;;;;;;4950337;28;20130;-66
2022/12/24 01:31:57;;;;;;;2.03;0.60;;;;;;;;;;4950895;28;20197;-63
2022/12/24 01:34:22;;;;;;;4.38;0.80;;;;;;;;;;4949310;28;20059;-66
2022/12/24 01:36:48;;;;;;;0.63;0.40;;;;;;;;;;4950146;28;20039;-66
2022/12/24 01:39:13;;;;;;;1.10;0.55;;;;;;;;;;4949423;28;20126;-65
2022/12/24 01:44:31;;;;;;;0.70;0.50;;;;;;;;;;4951097;28;20043;-65
2022/12/24 01:47:01;;;;;;;0.32;0.32;;;;;;;;;;4950391;28;20062;-66
2022/12/24 01:49:26;;;;;;;0.43;0.43;;;;;;;;;;4949563;28;20047;-66
2022/12/24 01:51:56;;;;;;;0.82;0.45;;;;;;;;;;4950703;28;20134;-65
2022/12/24 01:54:24;;;;;;;1.42;0.55;;;;;;;;;;4951107;28;20098;-65
2022/12/24 01:56:54;;;;;;;0.52;0.45;;;;;;;;;;4950947;28;20079;-66
2022/12/24 01:59:21;;;;;;;0.90;0.68;;;;;;;;;;4963847;28;20422;-64
2022/12/24 02:01:49;;;;;;;0.30;0.30;;;;;;;;;;4950897;28;20047;-65
2022/12/24 02:04:29;;;;;;;0.50;0.50;;;;;;;;;;4944772;28;20507;-66
2022/12/24 02:06:54;;;;;;;3.05;0.47;;;;;;;;;;4949872;28;20043;-66
2022/12/24 02:09:20;;;;;;;1.33;0.70;;;;;;;;;;4967250;28;20050;-66
2022/12/24 02:11:46;;;;;;;1.08;0.50;;;;;;;;;;4968777;28;20115;-66
2022/12/24 02:14:13;;;;;;;0.40;0.40;;;;;;;;;;4954137;28;20055;-66
2022/12/24 02:17:08;;;;;;;1.27;0.55;;;;;;;;;;4954257;28;20074;-67
2022/12/24 02:19:34;;;;;;;0.40;0.40;;;;;;;;;;4965716;28;20058;-66
2022/12/24 02:22:17;;;;;;;2.13;0.80;;;;;;;;;;4946724;28;20051;-66
2022/12/24 02:25:09;;;;;;;0.65;0.65;;;;;;;;;;4954164;28;20051;-66
2022/12/24 02:27:54;;;;;;;;;;;;;;;;;;4940304;29;20402;-66
2022/12/24 02:30:23;;;;;;;1.45;1.10;;;;;;;;;;4953116;28;19918;-66
2022/12/24 02:32:59;;;;;;;1.10;0.77;;;;;;;;;;4951072;28;20047;-66
2022/12/24 02:35:33;;;;;;;2.03;0.63;;;;;;;;;;4991162;28;20062;-67
2022/12/24 02:38:06;;;;;;;0.70;0.70;;;;;;;;;;4953451;28;20047;-66
2022/12/24 02:40:39;;;;;;;3.03;0.73;;;;;;;;;;4953757;28;20145;-67
2022/12/24 02:43:10;;;;;;;1.38;0.85;;;;;;;;;;4968716;28;20078;-66
2022/12/24 02:45:39;;;;;;;0.63;0.47;;;;;;;;;;4972744;28;20669;-66
2022/12/24 02:48:05;;;;;;;0.47;0.47;;;;;;;;;;4972705;28;20057;-65
2022/12/24 02:50:30;;;;;;;0.80;0.60;;;;;;;;;;4972760;28;20078;-66
2022/12/24 02:52:56;;;;;;;0.73;0.50;;;;;;;;;;4972266;28;20085;-65
2022/12/24 02:55:33;;;;;;;3.65;0.95;;;;;;;;;;4971736;28;20035;-66
2022/12/24 02:58:11;;;;;;;1.58;1.02;;;;;;;;;;4972604;28;20046;-66
2022/12/24 03:01:15;;;;;;;1.33;0.52;;;;;;;;;;4972448;28;20074;-66
2022/12/24 03:03:59;;;;;;;0.50;0.50;;;;;;;;;;4986429;28;20054;-66
2022/12/24 03:06:43;;;;;;;3.80;0.95;;;;;;;;;;4972082;28;20074;-67
2022/12/24 03:09:19;;;;;;;0.52;0.50;;;;;;;;;;4971940;28;20089;-66
2022/12/24 03:12:03;;;;;;;1.27;0.65;;;;;;;;;;4972647;28;20050;-66
2022/12/24 03:14:29;;;;;;;0.70;0.38;;;;;;;;;;4972409;28;20038;-65
2022/12/24 03:16:57;;;;;;;0.75;0.65;;;;;;;;;;4971101;28;20053;-67
2022/12/24 03:19:25;;;;;;;1.80;1.00;;;;;;;;;;4970853;28;20049;-67
2022/12/24 03:21:51;;;;;;;2.10;1.00;;;;;;;;;;4972087;28;20564;-66
2022/12/24 03:24:16;;;;;;;1.27;0.60;;;;;;;;;;4987041;28;20062;-66
2022/12/24 03:26:44;;;;;;;2.65;0.70;;;;;;;;;;4971494;28;20535;-66
2022/12/24 03:29:10;;;;;;;0.63;0.63;;;;;;;;;;4970501;28;20043;-66
2022/12/24 03:31:59;;;;;;;1.50;0.80;;;;;;;;;;4971484;28;20459;-66
2022/12/24 03:34:25;;;;;;;1.27;0.90;;;;;;;;;;4970050;28;20050;-66
2022/12/24 03:36:50;;;;;;;1.15;0.63;;;;;;;;;;4971971;28;20053;-66
2022/12/24 03:39:16;;;;;;;0.55;0.45;;;;;;;;;;4969873;28;20066;-66
2022/12/24 03:41:41;;;;;;;0.60;0.60;;;;;;;;;;4971661;28;20054;-65
2022/12/24 03:44:07;;;;;;;1.45;0.70;;;;;;;;;;4971683;28;20058;-66
2022/12/24 03:46:32;;;;;;;1.55;0.55;;;;;;;;;;4986624;28;20499;-66
2022/12/24 03:48:58;;;;;;;1.48;0.80;;;;;;;;;;4969854;28;20582;-66
2022/12/24 03:51:24;;;;;;;1.30;0.75;;;;;;;;;;4986323;28;20038;-67
2022/12/24 03:53:55;;;;;;;1.67;0.85;;;;;;;;;;4986697;28;20071;-64
2022/12/24 03:56:21;;;;;;;0.50;0.45;;;;;;;;;;4971394;28;20058;-66
2022/12/24 03:58:47;;;;;;;0.50;0.50;;;;;;;;;;4970976;28;20038;-65
2022/12/24 04:01:12;;;;;;;0.90;0.70;;;;;;;;;;4984984;28;20531;-66
2022/12/24 04:03:38;;;;;;;0.55;0.55;;;;;;;;;;4968494;28;20077;-66
2022/12/24 04:06:07;;;;;;;1.30;0.75;;;;;;;;;;4960395;28;20082;-66
2022/12/24 04:08:32;;;;;;;1.00;0.65;;;;;;;;;;4970575;28;20051;-65
2022/12/24 04:10:58;;;;;;;2.75;0.77;;;;;;;;;;4969778;28;20059;-66
2022/12/24 04:13:23;;;;;;;1.02;0.60;;;;;;;;;;4971164;28;20042;-66
2022/12/24 04:16:00;;;;;;;0.73;0.65;;;;;;;;;;4971447;28;20046;-65
2022/12/24 04:18:26;;;;;;;0.88;0.52;;;;;;;;;;4969880;28;20085;-66
2022/12/24 04:20:52;;;;;;;0.70;0.50;;;;;;;;;;4959589;28;20049;-66
2022/12/24 04:23:17;;;;;;;0.82;0.60;;;;;;;;;;4983387;28;20055;-66
2022/12/24 04:25:43;;;;;;;1.13;0.80;;;;;;;;;;4971137;28;20081;-66
2022/12/24 04:28:08;;;;;;;0.77;0.52;;;;;;;;;;4991733;23;20574;-71
2022/12/24 04:30:33;;;;;;;2.75;1.42;;;;;;;;;;4951008;28;20047;-71
2022/12/24 04:32:59;;;;;;;0.68;0.65;;;;;;;;;;4957246;28;20035;-71
2022/12/24 04:35:24;;;;;;;2.55;0.70;;;;;;;;;;4970037;28;20527;-71
2022/12/24 04:37:50;;;;;;;6.00;1.60;;;;;;;;;;4985724;28;20106;-71
2022/12/24 04:40:15;;;;;;;0.50;0.40;;;;;;;;;;4970874;28;20097;-71
2022/12/24 04:42:40;;;;;;;0.50;0.40;;;;;;;;;;4985851;28;20047;-71
2022/12/24 04:45:06;;;;;;;2.45;0.77;;;;;;;;;;4962385;28;20042;-71
2022/12/24 04:47:32;;;;;;;1.58;0.70;;;;;;;;;;4964695;28;20050;-71
2022/12/24 04:49:58;;;;;;;0.80;0.50;;;;;;;;;;4970581;28;20050;-71
2022/12/24 04:52:23;;;;;;;0.30;0.30;;;;;;;;;;4971306;28;20435;-71
2022/12/24 04:54:49;;;;;;;0.90;0.50;;;;;;;;;;4979534;28;20137;-71
2022/12/24 04:57:14;;;;;;;1.95;0.60;;;;;;;;;;4984150;28;20038;-71
2022/12/24 04:59:39;;;;;;;1.20;0.50;;;;;;;;;;4985613;28;20530;-71
2022/12/24 05:02:05;;;;;;;0.60;0.60;;;;;;;;;;4970375;28;20043;-71
2022/12/24 05:04:30;;;;;;;2.75;1.02;;;;;;;;;;4954457;28;20059;-71
2022/12/24 05:06:56;;;;;;;0.70;0.50;;;;;;;;;;4968563;28;20054;-72
2022/12/24 05:09:21;;;;;;;2.92;0.70;;;;;;;;;;4970972;28;20494;-71
2022/12/24 05:11:47;;;;;;;1.25;0.65;;;;;;;;;;4986518;28;20047;-71
2022/12/24 05:14:12;;;;;;;0.95;0.73;;;;;;;;;;4972023;28;20622;-71
2022/12/24 05:16:37;;;;;;;0.43;0.43;;;;;;;;;;4970258;28;20048;-71
2022/12/24 05:19:03;;;;;;;0.30;0.30;;;;;;;;;;4961918;28;20057;-71
2022/12/24 05:21:29;;;;;;;1.58;0.52;;;;;;;;;;4971836;28;20438;-71
2022/12/24 05:26:48;;;;;;;1.05;0.70;;;;;;;;;;4971699;28;20065;-72
2022/12/24 05:29:14;;;;;;;1.00;0.57;;;;;;;;;;4961348;28;20051;-71
2022/12/24 05:31:40;;;;;;;2.47;0.77;;;;;;;;;;4959984;28;20462;-71
2022/12/24 05:34:07;;;;;;;2.35;0.63;;;;;;;;;;4952843;28;20043;-71
2022/12/24 05:36:32;;;;;;;1.80;0.70;;;;;;;;;;4951911;28;20091;-71
2022/12/24 05:38:58;;;;;;;0.40;0.40;;;;;;;;;;4949758;28;20118;-72
2022/12/24 05:41:24;;;;;;;0.98;0.65;;;;;;;;;;4966551;28;20506;-71
2022/12/24 05:43:50;;;;;;;0.57;0.38;;;;;;;;;;4955268;28;20508;-71
2022/12/24 05:46:18;;;;;;;1.13;0.60;;;;;;;;;;4955045;28;20539;-71
2022/12/24 05:48:43;;;;;;;2.63;0.70;;;;;;;;;;4954797;28;20058;-71
2022/12/24 05:51:10;;;;;;;1.73;0.70;;;;;;;;;;4963099;28;20048;-71
2022/12/24 05:53:36;;;;;;;0.55;0.50;;;;;;;;;;4974148;28;20054;-71
2022/12/24 05:56:10;;;;;;;1.33;0.60;;;;;;;;;;4974044;28;20046;-71
2022/12/24 05:58:36;;;;;;;0.95;0.75;;;;;;;;;;4973278;28;20830;-71
2022/12/24 06:01:03;;;;;;;5.10;1.25;;;;;;;;;;4963024;28;20039;-71
2022/12/24 06:03:30;;;;;;;1.05;0.85;;;;;;;;;;4954444;28;20051;-71
2022/12/24 06:06:02;;;;;;;1.13;0.60;;;;;;;;;;4953313;28;20130;-71
2022/12/24 06:08:29;;;;;;;1.33;0.75;;;;;;;;;;4968588;28;20058;-71
2022/12/24 06:11:00;;;;;;;1.27;0.50;;;;;;;;;;4968340;28;20067;-72
2022/12/24 06:13:26;;;;;;;1.55;0.60;;;;;;;;;;4946602;28;20179;-71
2022/12/24 06:15:56;;;;;;;2.05;0.55;;;;;;;;;;4947530;28;20388;-71
2022/12/24 06:18:22;;;;;;;0.57;0.40;;;;;;;;;;4933726;28;20047;-71
2022/12/24 06:20:51;;;;;;;0.50;0.45;;;;;;;;;;4934379;28;20052;-71
2022/12/24 06:23:17;;;;;;;1.00;0.50;;;;;;;;;;4939078;28;20459;-71
2022/12/24 06:25:42;;;;;;;0.95;0.52;;;;;;;;;;4973360;28;20134;-71
2022/12/24 06:28:07;;;;;;;0.63;0.50;;;;;;;;;;4973292;28;20569;-71
2022/12/24 06:30:33;;;;;;;0.57;0.55;;;;;;;;;;4968652;28;20047;-71
2022/12/24 06:32:58;;;;;;;0.70;0.55;;;;;;;;;;4953431;28;20040;-72
2022/12/24 06:35:24;;;;;;;0.68;0.45;;;;;;;;;;4964272;28;20479;-71
2022/12/24 06:37:49;;;;;;;3.08;0.50;;;;;;;;;;4973116;28;20050;-71
2022/12/24 06:40:14;;;;;;;1.38;0.40;;;;;;;;;;4972557;28;20568;-71
2022/12/24 06:42:40;;;;;;;5.57;0.50;;;;;;;;;;4972914;28;20078;-71
2022/12/24 06:45:06;;;;;;;0.50;0.50;;;;;;;;;;4960731;28;20400;-71
2022/12/24 06:47:31;;;;;;;0.50;0.30;;;;;;;;;;4980598;28;20047;-71
2022/12/24 06:49:57;;;;;;;0.30;0.30;;;;;;;;;;4972486;28;20047;-72
2022/12/24 06:52:22;;;;;;;0.52;0.52;;;;;;;;;;4987970;28;20070;-71
2022/12/24 06:54:47;;;;;;;0.30;0.30;;;;;;;;;;4972246;28;20042;-71
2022/12/24 06:57:13;;;;;;;0.30;0.30;;;;;;;;;;4964063;28;20047;-71
2022/12/24 06:59:38;;;;;;;0.32;0.32;;;;;;;;;;4971955;28;20418;-71
2022/12/24 07:02:04;;;;;;;0.30;0.30;;;;;;;;;;4956729;28;20039;-71
2022/12/24 07:04:29;;;;;;;0.45;0.30;;;;;;;;;;4953307;28;20575;-71
2022/12/24 07:06:55;;;;;;;0.30;0.30;;;;;;;;;;4952496;28;20051;-71
2022/12/24 07:09:20;;;;;;;0.80;0.40;;;;;;;;;;4970922;28;20102;-72
2022/12/24 07:11:45;;;;;;;0.73;0.30;;;;;;;;;;4972379;28;20051;-71
2022/12/24 07:14:11;;;;;;;0.40;0.35;;;;;;;;;;4972577;28;20094;-71
2022/12/24 07:16:36;;;;;;;0.82;0.40;;;;;;;;;;4959948;28;20053;-71
2022/12/24 07:19:02;;;;;;;0.30;0.30;;;;;;;;;;4949892;28;20051;-71
2022/12/24 07:21:27;;;;;;;0.43;0.38;;;;;;;;;;4972231;28;20125;-71
2022/12/24 07:23:52;;;;;;;0.73;0.40;;;;;;;;;;4972380;28;20522;-71
2022/12/24 07:26:18;;;;;;;0.57;0.38;;;;;;;;;;4970942;28;20125;-71
2022/12/24 07:28:43;;;;;;;1.17;0.40;;;;;;;;;;4963009;28;20051;-71
2022/12/24 07:31:09;;;;;;;0.50;0.40;;;;;;;;;;4976561;28;20062;-71
2022/12/24 07:33:34;;;;;;;0.30;0.30;;;;;;;;;;4972192;28;20460;-71
2022/12/24 07:36:08;;;;;;;1.45;0.30;;;;;;;;;;4971903;28;20047;-71
2022/12/24 07:38:34;;;;;;;0.65;0.30;;;;;;;;;;4986535;28;20487;-71
2022/12/24 07:41:00;;;;;;;0.70;0.40;;;;;;;;;;4977603;28;20101;-72
2022/12/24 07:43:26;;;;;;;0.98;0.30;;;;;;;;;;4972074;28;20074;-72
2022/12/24 07:45:56;;;;;;;0.65;0.30;;;;;;;;;;4965586;28;20057;-71
2022/12/24 07:48:22;;;;;;;1.83;0.40;;;;;;;;;;4952875;28;20055;-71
2022/12/24 07:50:49;;;;;;;1.08;0.40;;;;;;;;;;4951131;28;20039;-71
2022/12/24 07:53:14;;;;;;;0.35;0.30;;;;;;;;;;4984588;28;20050;-71
2022/12/24 07:55:39;;;;;;;0.30;0.30;;;;;;;;;;4971675;28;20061;-71
2022/12/24 07:58:05;;;;;;;0.47;0.40;;;;;;;;;;4986588;28;20445;-71
2022/12/24 08:00:30;;;;;;;0.43;0.40;;;;;;;;;;4967338;28;20479;-71
2022/12/24 08:02:58;;;;;;;0.38;0.30;;;;;;;;;;4959196;28;20046;-71
2022/12/24 08:05:25;;;;;;;0.70;0.25;;;;;;;;;;4969729;28;20411;-71
2022/12/24 08:07:50;;;;;;;0.30;0.30;;;;;;;;;;4971652;28;20652;-71
2022/12/24 08:10:16;;;;;;;0.52;0.30;;;;;;;;;;4970931;28;20137;-71
2022/12/24 08:12:41;;;;;;;0.40;0.40;;;;;;;;;;4964855;28;20043;-72
2022/12/24 08:15:07;;;;;;;1.27;0.43;;;;;;;;;;4967806;28;20038;-71
2022/12/24 08:17:32;;;;;;;1.05;0.50;;;;;;;;;;4966772;28;20047;-71
2022/12/24 08:19:58;;;;;;;1.90;0.63;;;;;;;;;;4951429;28;20105;-71
2022/12/24 08:22:23;;;;;;;0.50;0.40;;;;;;;;;;4951944;28;20142;-71
2022/12/24 08:24:48;;;;;;;1.05;0.43;;;;;;;;;;4957755;28;20082;-71
2022/12/24 08:27:14;;;;;;;0.40;0.30;;;;;;;;;;4970303;28;20055;-71
2022/12/24 08:29:39;;;;;;;1.02;0.50;;;;;;;;;;4967790;28;20057;-71
2022/12/24 08:32:05;;;;;;;0.80;0.40;;;;;;;;;;4955003;28;20190;-71
2022/12/24 08:34:30;;;;;;;0.43;0.35;;;;;;;;;;4966103;28;20047;-71
2022/12/24 08:36:55;;;;;;;0.43;0.40;;;;;;;;;;4966635;28;20061;-75
2022/12/24 08:39:21;;;;;;;0.50;0.40;;;;;;;;;;4970249;28;20046;-71
2022/12/24 08:41:46;;;;;;;2.10;0.30;;;;;;;;;;4971011;28;20117;-71
2022/12/24 08:44:12;;;;;;;0.40;0.40;;;;;;;;;;4970758;28;20511;-72
2022/12/24 08:46:37;;;;;;;0.60;0.50;;;;;;;;;;4961441;28;20046;-71
2022/12/24 08:49:02;;;;;;;0.40;0.40;;;;;;;;;;4969396;28;20105;-71
2022/12/24 08:51:28;;;;;;;2.28;0.38;;;;;;;;;;4969533;28;20117;-71
2022/12/24 08:53:53;;;;;;;0.70;0.30;;;;;;;;;;4970968;28;20049;-71
2022/12/24 08:56:18;;;;;;;0.85;0.45;;;;;;;;;;4968583;28;20054;-71
2022/12/24 08:58:44;;;;;;;0.35;0.35;;;;;;;;;;4964564;28;20450;-71
2022/12/24 09:01:16;;;;;;;0.30;0.30;;;;;;;;;;4972711;28;20560;-71
2022/12/24 09:03:41;;;;;;;;;;;;;;;;;;4932907;28;20051;-71
2022/12/24 09:06:07;;;;;;;2.47;0.57;;;;;;;;;;4933178;28;19919;-71
2022/12/24 09:08:33;;;;;;;0.30;0.30;;;;;;;;;;4936388;28;20476;-71
2022/12/24 09:11:07;;;;;;;3.95;0.47;;;;;;;;;;4949805;28;20130;-71
2022/12/24 09:13:33;;;;;;;0.47;0.38;;;;;;;;;;4951446;28;20061;-71
2022/12/24 09:15:58;;;;;;;0.57;0.50;;;;;;;;;;4944036;28;20127;-71
2022/12/24 09:18:25;;;;;;;3.50;0.40;;;;;;;;;;4935393;28;20468;-71
2022/12/24 09:20:50;;;;;;;0.45;0.40;;;;;;;;;;4949982;29;20043;-71
2022/12/24 09:23:16;;;;;;;0.32;0.32;;;;;;;;;;4954411;28;20114;-71
2022/12/24 09:25:42;;;;;;;0.60;0.60;;;;;;;;;;4955451;28;20062;-71
2022/12/24 09:28:09;;;;;;;0.38;0.38;;;;;;;;;;4955129;28;20066;-72
2022/12/24 09:30:36;;;;;;;1.42;0.50;;;;;;;;;;4942359;28;20048;-72
2022/12/24 09:33:01;;;;;;;1.30;0.50;;;;;;;;;;4951592;28;20047;-71
2022/12/24 09:35:27;;;;;;;0.55;0.55;;;;;;;;;;4969461;28;20116;-72
2022/12/24 09:38:01;;;;;;;0.40;0.40;;;;;;;;;;4954936;28;20054;-71
2022/12/24 09:40:38;;;;;;;1.50;0.50;;;;;;;;;;4950904;28;20142;-71
2022/12/24 09:43:18;;;;;;;1.23;0.50;;;;;;;;;;4968531;28;20050;-71
2022/12/24 09:46:12;;;;;;;0.43;0.40;;;;;;;;;;4968742;28;20054;-71
2022/12/24 09:48:42;;;;;;;1.55;0.77;;;;;;;;;;4954808;28;20055;-71
2022/12/24 09:51:15;;;;;;;0.55;0.30;;;;;;;;;;4952960;28;20039;-71
2022/12/24 09:54:01;;;;;;;0.82;0.55;;;;;;;;;;4968517;28;20045;-71
2022/12/24 09:56:30;;;;;;;1.63;0.50;;;;;;;;;;4935527;29;20043;-71
2022/12/24 09:58:59;;;;;;;0.22;0.22;;;;;;;;;;4934835;29;20055;-71
2022/12/24 10:01:25;;;;;;;2.50;0.60;;;;;;;;;;4928891;29;20043;-72
2022/12/24 10:03:51;;;;;;;2.47;0.43;;;;;;;;;;4975467;28;20050;-71
2022/12/24 10:06:46;;;;;;;0.98;0.50;;;;;;;;;;4973671;28;20046;-72
2022/12/24 10:09:20;;;;;;;1.50;0.60;;;;;;;;;;4971190;28;20051;-71
2022/12/24 10:12:00;;;;;;;1.15;0.50;;;;;;;;;;4973724;28;20495;-72
2022/12/24 10:14:29;;;;;;;2.00;0.80;;;;;;;;;;4981570;28;20046;-71
2022/12/24 10:17:12;;;;;;;2.05;0.47;;;;;;;;;;4981464;28;20070;-71
2022/12/24 10:19:40;;;;;;;1.88;0.50;;;;;;;;;;4970362;28;20054;-72
2022/12/24 10:22:37;;;;;;;1.05;0.43;;;;;;;;;;4988469;28;20058;-71
2022/12/24 10:25:18;;;;;;;1.50;0.50;;;;;;;;;;4972602;28;20839;-71
2022/12/24 10:27:44;;;;;;;0.40;0.40;;;;;;;;;;4988208;28;20054;-71
2022/12/24 10:30:15;;;;;;;2.47;0.40;;;;;;;;;;4986339;28;20051;-71
2022/12/24 10:32:41;;;;;;;0.60;0.57;;;;;;;;;;4953925;28;20043;-71
2022/12/24 10:35:15;;;;;;;0.65;0.40;;;;;;;;;;4952814;28;20109;-71
2022/12/24 10:37:46;;;;;;;1.55;0.65;;;;;;;;;;4961707;28;20074;-71
2022/12/24 10:40:22;;;;;;;0.47;0.47;;;;;;;;;;4972537;28;20053;-71
2022/12/24 10:42:47;;;;;;;2.45;0.50;;;;;;;;;;4973040;28;20043;-71
2022/12/24 10:45:16;;;;;;;1.80;0.60;;;;;;;;;;4971049;28;20046;-71
2022/12/24 10:47:44;;;;;;;0.65;0.30;;;;;;;;;;4952785;28;20082;-71
2022/12/24 10:50:39;;;;;;;2.45;0.45;;;;;;;;;;4952968;28;20093;-72
2022/12/24 10:53:22;;;;;;;1.10;0.50;;;;;;;;;;4970190;28;20515;-71
2022/12/24 10:55:48;;;;;;;1.13;0.40;;;;;;;;;;4972818;28;20049;-71
2022/12/24 10:58:18;;;;;;;0.40;0.40;;;;;;;;;;4971582;28;20059;-71
2022/12/24 11:00:51;;;;;;;2.40;0.60;;;;;;;;;;4966486;28;20047;-71
2022/12/24 11:03:17;;;;;;;2.17;0.40;;;;;;;;;;4953263;28;20055;-70
2022/12/24 11:05:43;;;;;;;2.40;0.30;;;;;;;;;;4953871;28;20055;-71
2022/12/24 11:08:11;;;;;;;1.02;0.47;;;;;;;;;;4952800;28;20504;-71
2022/12/24 11:10:40;;;;;;;0.75;0.40;;;;;;;;;;4959115;28;20054;-71
2022/12/24 11:13:39;;;;;;;0.47;0.47;;;;;;;;;;4971914;28;20039;-71
2022/12/24 11:16:19;;;;;;;1.95;0.60;;;;;;;;;;4958945;28;20102;-71
2022/12/24 11:18:48;;;;;;;0.63;0.40;;;;;;;;;;4953137;28;20055;-71
2022/12/24 11:21:19;;;;;;;1.45;0.60;;;;;;;;;;4960847;28;20050;-71
2022/12/24 11:23:51;;;;;;;0.65;0.60;;;;;;;;;;4972417;28;20113;-71
2022/12/24 11:26:21;;;;;;;3.25;0.60;;;;;;;;;;4987233;28;20377;-70
2022/12/24 11:29:05;;;;;;;0.55;0.50;;;;;;;;;;4969520;28;20054;-70
2022/12/24 11:31:34;;;;;;;0.43;0.35;;;;;;;;;;4961773;28;20047;-71
2022/12/24 11:34:00;;;;;;;0.45;0.40;;;;;;;;;;4986905;28;20504;-70
2022/12/24 11:36:28;;;;;;;3.10;0.50;;;;;;;;;;4971812;28;20134;-70
2022/12/24 11:38:58;;;;;;;0.73;0.40;;;;;;;;;;4971666;28;20503;-70
2022/12/24 11:41:25;;;;;;;0.93;0.40;;;;;;;;;;4967908;28;20059;-71
2022/12/24 11:43:59;;;;;;;0.40;0.40;;;;;;;;;;4967605;28;20111;-70
2022/12/24 11:46:38;;;;;;;0.30;0.30;;;;;;;;;;4944289;28;20093;-70
2022/12/24 11:49:12;;;;;;;1.05;0.30;;;;;;;;;;4966112;28;20055;-70
2022/12/24 11:51:45;;;;;;;0.70;0.68;;;;;;;;;;4952511;28;20055;-70
2022/12/24 11:54:25;;;;;;;2.40;0.70;;;;;;;;;;4959592;28;20050;-70
2022/12/24 11:56:53;;;;;;;0.43;0.40;;;;;;;;;;4981895;28;20657;-70
2022/12/24 11:59:33;;;;;;;0.65;0.43;;;;;;;;;;4970264;28;20365;-70
2022/12/24 12:02:36;;;;;;;1.77;0.60;;;;;;;;;;4956427;28;20046;-70
2022/12/24 12:05:08;;;;;;;2.58;0.32;;;;;;;;;;4965962;28;20086;-70
2022/12/24 12:07:36;;;;;;;0.55;0.30;;;;;;;;;;4971791;28;20093;-70
2022/12/24 12:10:17;;;;;;;1.45;0.50;;;;;;;;;;4969647;28;20054;-69
2022/12/24 12:13:12;;;;;;;1.50;0.40;;;;;;;;;;4971537;28;20427;-70
2022/12/24 12:16:08;;;;;;;1.70;0.75;;;;;;;;;;4956076;28;20066;-70
2022/12/24 12:18:45;;;;;;;3.05;0.63;;;;;;;;;;4957940;28;20058;-71
2022/12/24 12:21:16;;;;;;;1.40;0.70;;;;;;;;;;4984884;28;20070;-70
2022/12/24 12:23:50;;;;;;;0.55;0.40;;;;;;;;;;4971171;28;20054;-70
2022/12/24 12:26:27;;;;;;;3.10;1.00;;;;;;;;;;4976633;28;20419;-70
2022/12/24 12:29:24;;;;;;;6.05;0.93;;;;;;;;;;4967119;28;20059;-71
2022/12/24 12:31:57;;;;;;;1.00;0.57;;;;;;;;;;4953841;28;20047;-71
2022/12/24 12:34:35;;;;;;;2.30;0.57;;;;;;;;;;4950930;28;20082;-69
2022/12/24 12:37:12;;;;;;;1.20;0.50;;;;;;;;;;4955990;28;20050;-70
2022/12/24 12:39:38;;;;;;;2.25;0.90;;;;;;;;;;4969005;28;20137;-69
2022/12/24 12:42:39;;;;;;;1.63;0.57;;;;;;;;;;4970806;28;20158;-70
2022/12/24 12:45:32;;;;;;;2.50;0.70;;;;;;;;;;4913319;29;20043;-70
2022/12/24 12:48:24;;;;;;;3.90;1.02;;;;;;;;;;4950474;28;20047;-70
2022/12/24 12:50:54;;;;;;;0.63;0.60;;;;;;;;;;4959495;28;20057;-70
2022/12/24 12:53:34;;;;;;;2.75;0.80;;;;;;;;;;4970365;28;20524;-70
2022/12/24 12:56:32;;;;;;;2.50;0.73;;;;;;;;;;4971160;28;20590;-70
2022/12/24 12:59:20;;;;;;;0.70;0.50;;;;;;;;;;4963472;28;20041;-70
2022/12/24 13:02:11;;;;;;;1.52;0.77;;;;;;;;;;4951013;28;20047;-70
2022/12/24 13:04:52;;;;;;;1.67;0.70;;;;;;;;;;4970605;28;20058;-71
2022/12/24 13:07:45;;;;;;;1.00;0.50;;;;;;;;;;4970311;28;20137;-70
2022/12/24 13:10:29;;;;;;;2.30;0.60;;;;;;;;;;4962165;28;20105;-70
2022/12/24 13:13:16;;;;;;;3.10;0.73;;;;;;;;;;4985545;28;20603;-70
2022/12/24 13:15:54;;;;;;;0.82;0.60;;;;;;;;;;4963253;28;20055;-70
2022/12/24 13:18:36;;;;;;;2.38;0.73;;;;;;;;;;4951290;28;20048;-70
2022/12/24 13:21:02;;;;;;;;;;;;;;;;;;4950135;28;20047;-71
2022/12/24 13:23:27;;;;;;;4.13;1.02;;;;;;;;;;4970456;28;20460;-69
2022/12/24 13:25:55;;;;;;;1.38;0.70;;;;;;;;;;4970590;28;20058;-70
2022/12/24 13:28:21;;;;;;;5.40;0.75;;;;;;;;;;4970563;28;20058;-70
2022/12/24 13:30:48;;;;;;;1.15;0.60;;;;;;;;;;4964425;28;20134;-71
2022/12/24 13:33:35;;;;;;;1.58;0.70;;;;;;;;;;4959607;28;20515;-70
2022/12/24 13:36:17;;;;;;;2.63;0.80;;;;;;;;;;4970434;28;20054;-71
2022/12/24 13:38:55;;;;;;;2.60;0.88;;;;;;;;;;4970390;28;20046;-71
2022/12/24 13:41:33;;;;;;;2.33;0.65;;;;;;;;;;4984093;28;20047;-70
2022/12/24 13:44:14;;;;;;;1.50;0.70;;;;;;;;;;4962877;28;20443;-70
2022/12/24 13:47:14;;;;;;;1.60;0.65;;;;;;;;;;4956963;28;20102;-69
2022/12/24 13:49:42;;;;;;;2.00;1.08;;;;;;;;;;4948253;28;20050;-70
2022/12/24 13:52:10;;;;;;;3.28;0.88;;;;;;;;;;4951140;28;20047;-70
2022/12/24 13:54:39;;;;;;;0.40;0.40;;;;;;;;;;4955478;28;20065;-69
2022/12/24 13:57:23;;;;;;;2.47;0.68;;;;;;;;;;4984566;28;20515;-69
2022/12/24 13:59:57;;;;;;;2.35;1.00;;;;;;;;;;4969925;28;20105;-70
2022/12/24 14:02:23;;;;;;;1.67;0.90;;;;;;;;;;4967021;28;20047;-69
2022/12/24 14:04:49;;;;;;;1.70;0.57;;;;;;;;;;4953964;28;20058;-70
2022/12/24 14:07:18;;;;;;;1.50;0.70;;;;;;;;;;4972354;28;20046;-70
2022/12/24 14:09:49;;;;;;;2.53;0.80;;;;;;;;;;4988024;28;20059;-70
2022/12/24 14:12:30;;;;;;;1.38;0.63;;;;;;;;;;4973732;28;20049;-70
2022/12/24 14:14:55;;;;;;;1.25;0.63;;;;;;;;;;4973515;28;20043;-70
2022/12/24 14:17:26;;;;;;;0.98;0.50;;;;;;;;;;4964959;28;20050;-69
2022/12/24 14:19:59;;;;;;;0.47;0.40;;;;;;;;;;4988269;28;20043;-71
2022/12/24 14:22:37;;;;;;;2.42;0.70;;;;;;;;;;4988496;28;20042;-70
2022/12/24 14:25:17;;;;;;;3.35;0.70;;;;;;;;;;4987675;28;20071;-70
2022/12/24 14:27:46;;;;;;;2.60;0.60;;;;;;;;;;4980489;28;20065;-70
2022/12/24 14:30:20;;;;;;;1.83;0.60;;;;;;;;;;4968817;28;20058;-69
2022/12/24 14:32:46;;;;;;;1.70;0.52;;;;;;;;;;4954011;28;20039;-70
2022/12/24 14:35:12;;;;;;;0.22;0.22;;;;;;;;;;4953490;28;20071;-70
2022/12/24 14:37:38;;;;;;;0.77;0.55;;;;;;;;;;4968052;28;20077;-70
2022/12/24 14:40:05;;;;;;;2.58;0.82;;;;;;;;;;4969944;28;20516;-70
2022/12/24 14:42:52;;;;;;;0.70;0.50;;;;;;;;;;4973332;28;20154;-70
2022/12/24 14:45:33;;;;;;;1.75;0.50;;;;;;;;;;4970852;28;20057;-70
2022/12/24 14:48:12;;;;;;;0.90;0.43;;;;;;;;;;4953662;28;20051;-70
2022/12/24 14:51:06;;;;;;;2.17;1.00;;;;;;;;;;4959943;28;20507;-70
2022/12/24 14:53:48;;;;;;;0.98;0.50;;;;;;;;;;4947764;28;20052;-70
2022/12/24 14:56:17;;;;;;;1.60;0.60;;;;;;;;;;4949500;28;20419;-70
2022/12/24 14:58:44;;;;;;;1.35;0.57;;;;;;;;;;4949098;28;20083;-70
2022/12/24 15:01:27;;;;;;;1.77;0.90;;;;;;;;;;4950203;28;20047;-70
2022/12/24 15:04:15;;;;;;;0.93;0.52;;;;;;;;;;4972637;28;20074;-69
2022/12/24 15:06:51;;;;;;;1.77;0.88;;;;;;;;;;4972886;28;20085;-70
2022/12/24 15:09:29;;;;;;;0.63;0.63;;;;;;;;;;4972215;28;20053;-70